sensor_id;sensor_type;location;lat;lon;timestamp;P1;durP1;ratioP1;P2;durP2;ratioP2
26540;SDS011;14206;50.202;10.948;2023-05-16T00:01:46;3.50;;;3.20;;
26540;SDS011;14206;50.202;10.948;2023-05-16T00:04:13;3.20;;;2.90;;
26540;SDS011;14206;50.202;10.948;2023-05-16T00:06:41;3.10;;;2.90;;
26540;SDS011;14206;50.202;10.948;2023-05-16T00:09:08;3.60;;;3.30;;
26540;SDS011;14206;50.202;10.948;2023-05-16T00:11:35;3.42;;;3.13;;
26540;SDS011;14206;50.202;10.948;2023-05-16T00:14:02;3.30;;;3.00;;
26540;SDS011;14206;50.202;10.948;2023-05-16T00:16:29;2.80;;;2.60;;
26540;SDS011;14206;50.202;10.948;2023-05-16T00:18:56;3.20;;;2.90;;
26540;SDS011;14206;50.202;10.948;2023-05-16T00:21:23;3.00;;;2.80;;
26540;SDS011;14206;50.202;10.948;2023-05-16T00:23:50;3.20;;;2.90;;
26540;SDS011;14206;50.202;10.948;2023-05-16T00:26:18;3.85;;;2.67;;
26540;SDS011;14206;50.202;10.948;2023-05-16T00:28:45;3.17;;;2.67;;
26540;SDS011;14206;50.202;10.948;2023-05-16T00:31:11;3.03;;;2.83;;
26540;SDS011;14206;50.202;10.948;2023-05-16T00:33:38;3.50;;;3.20;;
26540;SDS011;14206;50.202;10.948;2023-05-16T00:36:05;3.13;;;2.83;;
26540;SDS011;14206;50.202;10.948;2023-05-16T00:38:32;3.30;;;3.00;;
26540;SDS011;14206;50.202;10.948;2023-05-16T00:40:59;3.50;;;3.20;;
26540;SDS011;14206;50.202;10.948;2023-05-16T00:43:27;3.40;;;3.10;;
26540;SDS011;14206;50.202;10.948;2023-05-16T00:45:54;2.97;;;2.78;;
26540;SDS011;14206;50.202;10.948;2023-05-16T00:48:23;2.78;;;2.58;;
26540;SDS011;14206;50.202;10.948;2023-05-16T00:50:50;3.00;;;2.80;;
26540;SDS011;14206;50.202;10.948;2023-05-16T00:53:20;3.78;;;3.00;;
26540;SDS011;14206;50.202;10.948;2023-05-16T00:55:49;3.13;;;2.85;;
26540;SDS011;14206;50.202;10.948;2023-05-16T00:58:17;3.20;;;2.90;;
26540;SDS011;14206;50.202;10.948;2023-05-16T01:00:44;3.22;;;2.92;;
26540;SDS011;14206;50.202;10.948;2023-05-16T01:03:16;3.38;;;3.05;;
26540;SDS011;14206;50.202;10.948;2023-05-16T01:05:43;3.40;;;3.10;;
26540;SDS011;14206;50.202;10.948;2023-05-16T01:08:11;3.25;;;2.97;;
26540;SDS011;14206;50.202;10.948;2023-05-16T01:10:40;3.40;;;3.08;;
26540;SDS011;14206;50.202;10.948;2023-05-16T01:13:23;3.40;;;3.10;;
26540;SDS011;14206;50.202;10.948;2023-05-16T01:16:03;3.20;;;2.90;;
26540;SDS011;14206;50.202;10.948;2023-05-16T01:18:40;3.38;;;3.08;;
26540;SDS011;14206;50.202;10.948;2023-05-16T01:21:18;3.47;;;3.17;;
26540;SDS011;14206;50.202;10.948;2023-05-16T01:24:12;3.30;;;3.00;;
26540;SDS011;14206;50.202;10.948;2023-05-16T01:26:45;3.40;;;3.10;;
26540;SDS011;14206;50.202;10.948;2023-05-16T01:29:12;3.05;;;2.85;;
26540;SDS011;14206;50.202;10.948;2023-05-16T01:31:40;2.90;;;2.70;;
26540;SDS011;14206;50.202;10.948;2023-05-16T01:34:07;2.90;;;2.70;;
26540;SDS011;14206;50.202;10.948;2023-05-16T01:36:43;3.10;;;2.80;;
26540;SDS011;14206;50.202;10.948;2023-05-16T01:39:36;3.97;;;3.10;;
26540;SDS011;14206;50.202;10.948;2023-05-16T01:42:14;3.28;;;2.97;;
26540;SDS011;14206;50.202;10.948;2023-05-16T01:47:15;3.88;;;3.05;;
26540;SDS011;14206;50.202;10.948;2023-05-16T01:50:28;3.33;;;3.03;;
26540;SDS011;14206;50.202;10.948;2023-05-16T01:55:31;4.25;;;3.80;;
26540;SDS011;14206;50.202;10.948;2023-05-16T01:58:14;3.50;;;3.20;;
26540;SDS011;14206;50.202;10.948;2023-05-16T02:00:42;3.47;;;3.13;;
26540;SDS011;14206;50.202;10.948;2023-05-16T02:03:10;3.08;;;2.85;;
26540;SDS011;14206;50.202;10.948;2023-05-16T02:05:37;3.35;;;3.05;;
26540;SDS011;14206;50.202;10.948;2023-05-16T02:08:04;3.30;;;3.00;;
26540;SDS011;14206;50.202;10.948;2023-05-16T02:10:31;3.75;;;3.15;;
26540;SDS011;14206;50.202;10.948;2023-05-16T02:12:58;4.25;;;3.20;;
26540;SDS011;14206;50.202;10.948;2023-05-16T02:15:25;4.15;;;3.75;;
26540;SDS011;14206;50.202;10.948;2023-05-16T02:17:52;4.20;;;3.80;;
26540;SDS011;14206;50.202;10.948;2023-05-16T02:20:19;3.20;;;2.90;;
26540;SDS011;14206;50.202;10.948;2023-05-16T02:22:46;3.60;;;3.30;;
26540;SDS011;14206;50.202;10.948;2023-05-16T02:25:15;3.47;;;3.17;;
26540;SDS011;14206;50.202;10.948;2023-05-16T02:27:42;3.53;;;3.05;;
26540;SDS011;14206;50.202;10.948;2023-05-16T02:30:12;3.72;;;3.42;;
26540;SDS011;14206;50.202;10.948;2023-05-16T02:32:39;4.00;;;3.60;;
26540;SDS011;14206;50.202;10.948;2023-05-16T02:35:06;3.92;;;3.58;;
26540;SDS011;14206;50.202;10.948;2023-05-16T02:37:33;4.32;;;3.92;;
26540;SDS011;14206;50.202;10.948;2023-05-16T02:40:01;3.80;;;3.50;;
26540;SDS011;14206;50.202;10.948;2023-05-16T02:42:30;3.78;;;3.47;;
26540;SDS011;14206;50.202;10.948;2023-05-16T02:44:57;3.50;;;3.20;;
26540;SDS011;14206;50.202;10.948;2023-05-16T02:47:24;3.60;;;3.30;;
26540;SDS011;14206;50.202;10.948;2023-05-16T02:49:51;3.50;;;3.20;;
26540;SDS011;14206;50.202;10.948;2023-05-16T02:52:18;3.78;;;3.20;;
26540;SDS011;14206;50.202;10.948;2023-05-16T02:54:45;3.47;;;3.10;;
26540;SDS011;14206;50.202;10.948;2023-05-16T02:57:25;3.58;;;3.28;;
26540;SDS011;14206;50.202;10.948;2023-05-16T02:59:52;3.63;;;3.33;;
26540;SDS011;14206;50.202;10.948;2023-05-16T03:02:19;4.32;;;3.45;;
26540;SDS011;14206;50.202;10.948;2023-05-16T03:04:46;3.70;;;3.40;;
26540;SDS011;14206;50.202;10.948;2023-05-16T03:07:12;4.00;;;3.60;;
26540;SDS011;14206;50.202;10.948;2023-05-16T03:09:39;3.78;;;3.47;;
26540;SDS011;14206;50.202;10.948;2023-05-16T03:12:06;4.03;;;3.72;;
26540;SDS011;14206;50.202;10.948;2023-05-16T03:14:33;4.30;;;3.90;;
26540;SDS011;14206;50.202;10.948;2023-05-16T03:17:01;3.38;;;3.08;;
26540;SDS011;14206;50.202;10.948;2023-05-16T03:19:28;3.60;;;3.30;;
26540;SDS011;14206;50.202;10.948;2023-05-16T03:21:55;3.47;;;3.17;;
26540;SDS011;14206;50.202;10.948;2023-05-16T03:24:22;3.30;;;3.00;;
26540;SDS011;14206;50.202;10.948;2023-05-16T03:26:50;5.63;;;3.85;;
26540;SDS011;14206;50.202;10.948;2023-05-16T03:29:19;4.43;;;4.05;;
26540;SDS011;14206;50.202;10.948;2023-05-16T03:31:46;4.53;;;4.03;;
26540;SDS011;14206;50.202;10.948;2023-05-16T03:34:13;4.15;;;3.78;;
26540;SDS011;14206;50.202;10.948;2023-05-16T03:36:41;4.10;;;3.70;;
26540;SDS011;14206;50.202;10.948;2023-05-16T03:39:07;4.32;;;3.92;;
26540;SDS011;14206;50.202;10.948;2023-05-16T03:41:34;3.80;;;3.50;;
26540;SDS011;14206;50.202;10.948;2023-05-16T03:44:01;5.28;;;4.00;;
26540;SDS011;14206;50.202;10.948;2023-05-16T03:46:28;4.18;;;3.78;;
26540;SDS011;14206;50.202;10.948;2023-05-16T03:48:55;4.70;;;3.70;;
26540;SDS011;14206;50.202;10.948;2023-05-16T03:51:22;3.97;;;3.67;;
26540;SDS011;14206;50.202;10.948;2023-05-16T03:53:49;4.30;;;3.92;;
26540;SDS011;14206;50.202;10.948;2023-05-16T03:56:16;4.05;;;3.70;;
26540;SDS011;14206;50.202;10.948;2023-05-16T03:58:43;4.03;;;3.63;;
26540;SDS011;14206;50.202;10.948;2023-05-16T04:01:10;4.70;;;4.20;;
26540;SDS011;14206;50.202;10.948;2023-05-16T04:03:37;3.58;;;3.28;;
26540;SDS011;14206;50.202;10.948;2023-05-16T04:06:04;4.20;;;3.67;;
26540;SDS011;14206;50.202;10.948;2023-05-16T04:08:32;4.18;;;3.83;;
26540;SDS011;14206;50.202;10.948;2023-05-16T04:10:58;4.10;;;3.80;;
26540;SDS011;14206;50.202;10.948;2023-05-16T04:13:25;4.55;;;4.15;;
26540;SDS011;14206;50.202;10.948;2023-05-16T04:15:52;4.30;;;3.90;;
26540;SDS011;14206;50.202;10.948;2023-05-16T04:18:19;4.50;;;4.10;;
26540;SDS011;14206;50.202;10.948;2023-05-16T04:20:46;4.03;;;3.72;;
26540;SDS011;14206;50.202;10.948;2023-05-16T04:23:13;5.10;;;3.78;;
26540;SDS011;14206;50.202;10.948;2023-05-16T04:25:39;5.03;;;4.22;;
26540;SDS011;14206;50.202;10.948;2023-05-16T04:28:07;4.25;;;3.85;;
26540;SDS011;14206;50.202;10.948;2023-05-16T04:30:34;4.70;;;4.30;;
26540;SDS011;14206;50.202;10.948;2023-05-16T04:33:01;3.90;;;3.60;;
26540;SDS011;14206;50.202;10.948;2023-05-16T04:35:28;4.40;;;4.00;;
26540;SDS011;14206;50.202;10.948;2023-05-16T04:37:55;4.85;;;4.45;;
26540;SDS011;14206;50.202;10.948;2023-05-16T04:40:22;4.25;;;3.85;;
26540;SDS011;14206;50.202;10.948;2023-05-16T04:42:50;4.32;;;3.92;;
26540;SDS011;14206;50.202;10.948;2023-05-16T04:45:18;4.35;;;3.95;;
26540;SDS011;14206;50.202;10.948;2023-05-16T04:47:46;4.22;;;3.83;;
26540;SDS011;14206;50.202;10.948;2023-05-16T04:50:13;3.80;;;3.50;;
26540;SDS011;14206;50.202;10.948;2023-05-16T04:52:41;4.18;;;3.78;;
26540;SDS011;14206;50.202;10.948;2023-05-16T04:55:08;4.32;;;3.92;;
26540;SDS011;14206;50.202;10.948;2023-05-16T04:57:35;5.38;;;4.88;;
26540;SDS011;14206;50.202;10.948;2023-05-16T05:00:02;5.65;;;5.10;;
26540;SDS011;14206;50.202;10.948;2023-05-16T05:02:33;6.03;;;5.43;;
26540;SDS011;14206;50.202;10.948;2023-05-16T05:05:00;4.88;;;4.47;;
26540;SDS011;14206;50.202;10.948;2023-05-16T05:07:27;5.05;;;4.57;;
26540;SDS011;14206;50.202;10.948;2023-05-16T05:09:54;5.13;;;4.63;;
26540;SDS011;14206;50.202;10.948;2023-05-16T05:12:21;6.07;;;5.47;;
26540;SDS011;14206;50.202;10.948;2023-05-16T05:14:48;4.45;;;4.05;;
26540;SDS011;14206;50.202;10.948;2023-05-16T05:17:15;4.95;;;4.40;;
26540;SDS011;14206;50.202;10.948;2023-05-16T05:19:43;5.00;;;4.50;;
26540;SDS011;14206;50.202;10.948;2023-05-16T05:22:11;4.65;;;4.25;;
26540;SDS011;14206;50.202;10.948;2023-05-16T05:24:38;5.25;;;4.75;;
26540;SDS011;14206;50.202;10.948;2023-05-16T05:27:05;5.13;;;4.68;;
26540;SDS011;14206;50.202;10.948;2023-05-16T05:29:32;5.35;;;4.60;;
26540;SDS011;14206;50.202;10.948;2023-05-16T05:31:59;4.53;;;4.13;;
26540;SDS011;14206;50.202;10.948;2023-05-16T05:34:26;6.50;;;4.90;;
26540;SDS011;14206;50.202;10.948;2023-05-16T05:36:52;5.43;;;4.93;;
26540;SDS011;14206;50.202;10.948;2023-05-16T05:39:19;4.70;;;4.30;;
26540;SDS011;14206;50.202;10.948;2023-05-16T05:41:46;6.07;;;5.57;;
26540;SDS011;14206;50.202;10.948;2023-05-16T05:44:13;4.93;;;4.50;;
26540;SDS011;14206;50.202;10.948;2023-05-16T05:46:39;5.57;;;4.90;;
26540;SDS011;14206;50.202;10.948;2023-05-16T05:49:06;5.50;;;4.55;;
26540;SDS011;14206;50.202;10.948;2023-05-16T05:51:33;5.03;;;4.55;;
26540;SDS011;14206;50.202;10.948;2023-05-16T05:54:01;5.10;;;4.70;;
26540;SDS011;14206;50.202;10.948;2023-05-16T05:56:28;4.10;;;3.80;;
26540;SDS011;14206;50.202;10.948;2023-05-16T05:58:55;7.68;;;6.60;;
26540;SDS011;14206;50.202;10.948;2023-05-16T06:01:21;6.80;;;5.97;;
26540;SDS011;14206;50.202;10.948;2023-05-16T06:03:49;8.60;;;7.70;;
26540;SDS011;14206;50.202;10.948;2023-05-16T06:06:17;6.82;;;6.13;;
26540;SDS011;14206;50.202;10.948;2023-05-16T06:08:44;7.32;;;6.63;;
26540;SDS011;14206;50.202;10.948;2023-05-16T06:11:10;7.18;;;5.60;;
26540;SDS011;14206;50.202;10.948;2023-05-16T06:13:37;7.63;;;6.93;;
26540;SDS011;14206;50.202;10.948;2023-05-16T06:16:04;7.47;;;6.78;;
26540;SDS011;14206;50.202;10.948;2023-05-16T06:18:34;6.90;;;6.30;;
26540;SDS011;14206;50.202;10.948;2023-05-16T06:21:01;8.13;;;6.57;;
26540;SDS011;14206;50.202;10.948;2023-05-16T06:23:28;7.50;;;6.15;;
26540;SDS011;14206;50.202;10.948;2023-05-16T06:25:56;7.53;;;6.68;;
26540;SDS011;14206;50.202;10.948;2023-05-16T06:28:22;7.03;;;6.05;;
26540;SDS011;14206;50.202;10.948;2023-05-16T06:30:49;5.45;;;4.95;;
26540;SDS011;14206;50.202;10.948;2023-05-16T06:33:17;6.50;;;5.90;;
26540;SDS011;14206;50.202;10.948;2023-05-16T06:35:44;7.20;;;6.50;;
26540;SDS011;14206;50.202;10.948;2023-05-16T06:38:11;7.18;;;6.47;;
26540;SDS011;14206;50.202;10.948;2023-05-16T06:40:38;8.07;;;6.80;;
26540;SDS011;14206;50.202;10.948;2023-05-16T06:43:05;7.05;;;6.35;;
26540;SDS011;14206;50.202;10.948;2023-05-16T06:45:32;6.32;;;5.72;;
26540;SDS011;14206;50.202;10.948;2023-05-16T06:47:59;7.30;;;6.60;;
26540;SDS011;14206;50.202;10.948;2023-05-16T06:50:26;6.57;;;5.97;;
26540;SDS011;14206;50.202;10.948;2023-05-16T06:52:52;6.63;;;5.75;;
26540;SDS011;14206;50.202;10.948;2023-05-16T06:55:19;5.68;;;5.18;;
26540;SDS011;14206;50.202;10.948;2023-05-16T06:57:46;5.68;;;4.53;;
26540;SDS011;14206;50.202;10.948;2023-05-16T07:00:13;4.97;;;4.47;;
26540;SDS011;14206;50.202;10.948;2023-05-16T07:02:40;5.50;;;4.65;;
26540;SDS011;14206;50.202;10.948;2023-05-16T07:05:08;4.45;;;4.05;;
26540;SDS011;14206;50.202;10.948;2023-05-16T07:07:34;5.30;;;4.75;;
26540;SDS011;14206;50.202;10.948;2023-05-16T07:10:02;7.28;;;4.25;;
26540;SDS011;14206;50.202;10.948;2023-05-16T07:12:29;4.30;;;4.00;;
26540;SDS011;14206;50.202;10.948;2023-05-16T07:14:56;4.93;;;4.40;;
26540;SDS011;14206;50.202;10.948;2023-05-16T07:17:23;3.92;;;3.53;;
26540;SDS011;14206;50.202;10.948;2023-05-16T07:19:50;3.33;;;3.03;;
26540;SDS011;14206;50.202;10.948;2023-05-16T07:22:17;3.33;;;2.72;;
26540;SDS011;14206;50.202;10.948;2023-05-16T07:24:44;2.90;;;2.58;;
26540;SDS011;14206;50.202;10.948;2023-05-16T07:27:11;3.42;;;3.05;;
26540;SDS011;14206;50.202;10.948;2023-05-16T07:29:38;5.38;;;3.33;;
26540;SDS011;14206;50.202;10.948;2023-05-16T07:32:05;3.92;;;3.45;;
26540;SDS011;14206;50.202;10.948;2023-05-16T07:34:32;4.35;;;3.40;;
26540;SDS011;14206;50.202;10.948;2023-05-16T07:36:59;3.75;;;3.38;;
26540;SDS011;14206;50.202;10.948;2023-05-16T07:39:26;3.10;;;2.80;;
26540;SDS011;14206;50.202;10.948;2023-05-16T07:41:53;4.72;;;3.13;;
26540;SDS011;14206;50.202;10.948;2023-05-16T07:44:20;3.60;;;3.28;;
26540;SDS011;14206;50.202;10.948;2023-05-16T07:46:47;1.80;;;1.67;;
26540;SDS011;14206;50.202;10.948;2023-05-16T07:49:14;2.97;;;2.67;;
26540;SDS011;14206;50.202;10.948;2023-05-16T07:51:41;4.18;;;2.70;;
26540;SDS011;14206;50.202;10.948;2023-05-16T07:54:08;3.22;;;2.92;;
26540;SDS011;14206;50.202;10.948;2023-05-16T07:56:35;3.10;;;2.20;;
26540;SDS011;14206;50.202;10.948;2023-05-16T07:59:02;1.90;;;1.80;;
26540;SDS011;14206;50.202;10.948;2023-05-16T08:01:31;3.47;;;3.00;;
26540;SDS011;14206;50.202;10.948;2023-05-16T08:03:58;3.17;;;2.88;;
26540;SDS011;14206;50.202;10.948;2023-05-16T08:06:25;3.55;;;2.78;;
26540;SDS011;14206;50.202;10.948;2023-05-16T08:08:51;2.63;;;2.42;;
26540;SDS011;14206;50.202;10.948;2023-05-16T08:11:18;3.67;;;3.28;;
26540;SDS011;14206;50.202;10.948;2023-05-16T08:13:48;2.85;;;2.15;;
26540;SDS011;14206;50.202;10.948;2023-05-16T08:16:15;4.07;;;3.60;;
26540;SDS011;14206;50.202;10.948;2023-05-16T08:18:42;4.10;;;3.70;;
26540;SDS011;14206;50.202;10.948;2023-05-16T08:21:09;4.97;;;4.05;;
26540;SDS011;14206;50.202;10.948;2023-05-16T08:23:36;3.72;;;3.30;;
26540;SDS011;14206;50.202;10.948;2023-05-16T08:26:03;3.90;;;3.60;;
26540;SDS011;14206;50.202;10.948;2023-05-16T08:28:30;3.67;;;3.20;;
26540;SDS011;14206;50.202;10.948;2023-05-16T08:30:57;3.67;;;3.38;;
26540;SDS011;14206;50.202;10.948;2023-05-16T08:33:24;3.90;;;3.50;;
26540;SDS011;14206;50.202;10.948;2023-05-16T08:35:51;4.75;;;4.20;;
26540;SDS011;14206;50.202;10.948;2023-05-16T08:38:18;4.20;;;3.80;;
26540;SDS011;14206;50.202;10.948;2023-05-16T08:40:45;5.20;;;4.07;;
26540;SDS011;14206;50.202;10.948;2023-05-16T08:43:13;5.25;;;3.30;;
26540;SDS011;14206;50.202;10.948;2023-05-16T08:45:40;5.05;;;4.40;;
26540;SDS011;14206;50.202;10.948;2023-05-16T08:48:08;5.13;;;4.63;;
26540;SDS011;14206;50.202;10.948;2023-05-16T08:50:36;4.28;;;3.88;;
26540;SDS011;14206;50.202;10.948;2023-05-16T08:53:06;5.95;;;5.10;;
26540;SDS011;14206;50.202;10.948;2023-05-16T08:55:35;5.55;;;5.03;;
26540;SDS011;14206;50.202;10.948;2023-05-16T08:58:02;5.50;;;4.88;;
26540;SDS011;14206;50.202;10.948;2023-05-16T09:00:29;5.18;;;3.80;;
26540;SDS011;14206;50.202;10.948;2023-05-16T09:02:57;5.15;;;4.38;;
26540;SDS011;14206;50.202;10.948;2023-05-16T09:05:24;6.00;;;4.75;;
26540;SDS011;14206;50.202;10.948;2023-05-16T09:07:52;4.18;;;3.63;;
26540;SDS011;14206;50.202;10.948;2023-05-16T09:10:19;3.67;;;3.38;;
26540;SDS011;14206;50.202;10.948;2023-05-16T09:12:46;4.60;;;3.55;;
26540;SDS011;14206;50.202;10.948;2023-05-16T09:15:13;5.40;;;4.00;;
26540;SDS011;14206;50.202;10.948;2023-05-16T09:17:44;5.70;;;3.97;;
26540;SDS011;14206;50.202;10.948;2023-05-16T09:20:13;4.95;;;3.70;;
26540;SDS011;14206;50.202;10.948;2023-05-16T09:22:48;5.13;;;4.30;;
26540;SDS011;14206;50.202;10.948;2023-05-16T09:25:18;4.45;;;4.05;;
26540;SDS011;14206;50.202;10.948;2023-05-16T09:27:57;3.47;;;3.17;;
26540;SDS011;14206;50.202;10.948;2023-05-16T09:30:33;4.35;;;3.60;;
26540;SDS011;14206;50.202;10.948;2023-05-16T09:33:02;6.15;;;3.90;;
26540;SDS011;14206;50.202;10.948;2023-05-16T09:35:31;4.25;;;3.85;;
26540;SDS011;14206;50.202;10.948;2023-05-16T09:38:01;3.22;;;2.92;;
26540;SDS011;14206;50.202;10.948;2023-05-16T09:40:28;3.85;;;3.50;;
26540;SDS011;14206;50.202;10.948;2023-05-16T09:43:02;4.25;;;3.22;;
26540;SDS011;14206;50.202;10.948;2023-05-16T09:45:31;4.65;;;3.13;;
26540;SDS011;14206;50.202;10.948;2023-05-16T09:48:05;3.10;;;2.80;;
26540;SDS011;14206;50.202;10.948;2023-05-16T09:50:34;3.30;;;3.00;;
26540;SDS011;14206;50.202;10.948;2023-05-16T09:53:02;4.35;;;3.30;;
26540;SDS011;14206;50.202;10.948;2023-05-16T09:55:29;3.30;;;2.92;;
26540;SDS011;14206;50.202;10.948;2023-05-16T09:57:57;4.47;;;3.05;;
26540;SDS011;14206;50.202;10.948;2023-05-16T10:00:30;3.17;;;2.88;;
26540;SDS011;14206;50.202;10.948;2023-05-16T10:03:00;4.30;;;3.10;;
26540;SDS011;14206;50.202;10.948;2023-05-16T10:05:32;2.70;;;2.42;;
26540;SDS011;14206;50.202;10.948;2023-05-16T10:07:59;2.60;;;2.13;;
26540;SDS011;14206;50.202;10.948;2023-05-16T10:10:28;2.42;;;1.88;;
26540;SDS011;14206;50.202;10.948;2023-05-16T10:12:57;1.90;;;1.70;;
26540;SDS011;14206;50.202;10.948;2023-05-16T10:15:26;2.53;;;2.25;;
26540;SDS011;14206;50.202;10.948;2023-05-16T10:17:55;2.03;;;1.92;;
26540;SDS011;14206;50.202;10.948;2023-05-16T10:20:25;2.80;;;2.17;;
26540;SDS011;14206;50.202;10.948;2023-05-16T10:22:54;2.28;;;2.00;;
26540;SDS011;14206;50.202;10.948;2023-05-16T10:25:25;1.98;;;1.70;;
26540;SDS011;14206;50.202;10.948;2023-05-16T10:27:57;1.70;;;1.60;;
26540;SDS011;14206;50.202;10.948;2023-05-16T10:30:24;1.92;;;1.70;;
26540;SDS011;14206;50.202;10.948;2023-05-16T10:32:52;1.70;;;1.60;;
26540;SDS011;14206;50.202;10.948;2023-05-16T10:35:21;2.08;;;1.80;;
26540;SDS011;14206;50.202;10.948;2023-05-16T10:37:49;2.25;;;2.05;;
26540;SDS011;14206;50.202;10.948;2023-05-16T10:40:16;2.30;;;2.00;;
26540;SDS011;14206;50.202;10.948;2023-05-16T10:42:54;2.22;;;1.98;;
26540;SDS011;14206;50.202;10.948;2023-05-16T10:45:21;3.03;;;1.83;;
26540;SDS011;14206;50.202;10.948;2023-05-16T10:47:59;2.35;;;2.10;;
26540;SDS011;14206;50.202;10.948;2023-05-16T10:50:30;2.40;;;2.20;;
26540;SDS011;14206;50.202;10.948;2023-05-16T10:56:04;2.20;;;2.00;;
26540;SDS011;14206;50.202;10.948;2023-05-16T11:06:26;1.88;;;1.77;;
26540;SDS011;14206;50.202;10.948;2023-05-16T11:15:00;1.60;;;1.50;;
26540;SDS011;14206;50.202;10.948;2023-05-16T11:17:10;1.55;;;1.45;;
26540;SDS011;14206;50.202;10.948;2023-05-16T11:19:39;1.63;;;1.50;;
26540;SDS011;14206;50.202;10.948;2023-05-16T11:22:12;1.85;;;1.70;;
26540;SDS011;14206;50.202;10.948;2023-05-16T11:27:27;2.08;;;1.88;;
26540;SDS011;14206;50.202;10.948;2023-05-16T11:30:02;1.42;;;1.33;;
26540;SDS011;14206;50.202;10.948;2023-05-16T11:32:45;1.95;;;1.40;;
26540;SDS011;14206;50.202;10.948;2023-05-16T11:35:14;1.20;;;1.10;;
26540;SDS011;14206;50.202;10.948;2023-05-16T11:37:43;1.48;;;1.30;;
26540;SDS011;14206;50.202;10.948;2023-05-16T11:40:11;1.38;;;1.27;;
26540;SDS011;14206;50.202;10.948;2023-05-16T11:42:40;1.65;;;1.40;;
26540;SDS011;14206;50.202;10.948;2023-05-16T11:45:09;1.60;;;1.30;;
26540;SDS011;14206;50.202;10.948;2023-05-16T11:47:38;1.00;;;0.95;;
26540;SDS011;14206;50.202;10.948;2023-05-16T11:50:12;1.08;;;0.98;;
26540;SDS011;14206;50.202;10.948;2023-05-16T11:52:45;1.55;;;1.10;;
26540;SDS011;14206;50.202;10.948;2023-05-16T11:55:13;1.20;;;1.10;;
26540;SDS011;14206;50.202;10.948;2023-05-16T11:57:58;1.20;;;1.10;;
26540;SDS011;14206;50.202;10.948;2023-05-16T12:00:25;1.17;;;1.02;;
26540;SDS011;14206;50.202;10.948;2023-05-16T12:02:53;1.02;;;0.93;;
26540;SDS011;14206;50.202;10.948;2023-05-16T12:05:26;1.23;;;1.13;;
26540;SDS011;14206;50.202;10.948;2023-05-16T12:07:56;1.20;;;1.10;;
26540;SDS011;14206;50.202;10.948;2023-05-16T12:10:24;1.20;;;1.10;;
26540;SDS011;14206;50.202;10.948;2023-05-16T12:12:52;1.35;;;1.20;;
26540;SDS011;14206;50.202;10.948;2023-05-16T12:15:21;1.27;;;1.17;;
26540;SDS011;14206;50.202;10.948;2023-05-16T12:17:48;1.23;;;1.05;;
26540;SDS011;14206;50.202;10.948;2023-05-16T12:20:15;1.15;;;1.05;;
26540;SDS011;14206;50.202;10.948;2023-05-16T12:22:43;1.00;;;1.00;;
26540;SDS011;14206;50.202;10.948;2023-05-16T12:27:58;1.13;;;1.02;;
26540;SDS011;14206;50.202;10.948;2023-05-16T12:30:27;1.40;;;1.10;;
26540;SDS011;14206;50.202;10.948;2023-05-16T12:32:55;1.50;;;1.40;;
26540;SDS011;14206;50.202;10.948;2023-05-16T12:35:33;1.10;;;1.00;;
26540;SDS011;14206;50.202;10.948;2023-05-16T12:38:04;0.80;;;0.80;;
26540;SDS011;14206;50.202;10.948;2023-05-16T12:40:38;0.80;;;0.80;;
26540;SDS011;14206;50.202;10.948;2023-05-16T12:43:16;1.30;;;1.10;;
26540;SDS011;14206;50.202;10.948;2023-05-16T12:45:49;1.13;;;0.95;;
26540;SDS011;14206;50.202;10.948;2023-05-16T12:48:18;1.27;;;1.10;;
26540;SDS011;14206;50.202;10.948;2023-05-16T12:50:45;1.40;;;1.20;;
26540;SDS011;14206;50.202;10.948;2023-05-16T12:53:12;2.97;;;1.65;;
26540;SDS011;14206;50.202;10.948;2023-05-16T12:55:40;3.42;;;1.70;;
26540;SDS011;14206;50.202;10.948;2023-05-16T12:58:08;2.13;;;1.50;;
26540;SDS011;14206;50.202;10.948;2023-05-16T13:00:36;3.55;;;1.40;;
26540;SDS011;14206;50.202;10.948;2023-05-16T13:03:04;3.60;;;1.60;;
26540;SDS011;14206;50.202;10.948;2023-05-16T13:05:33;2.80;;;1.67;;
26540;SDS011;14206;50.202;10.948;2023-05-16T13:08:01;3.13;;;1.45;;
26540;SDS011;14206;50.202;10.948;2023-05-16T13:10:28;2.08;;;1.50;;
26540;SDS011;14206;50.202;10.948;2023-05-16T13:12:55;2.10;;;1.60;;
26540;SDS011;14206;50.202;10.948;2023-05-16T13:15:25;1.75;;;1.27;;
26540;SDS011;14206;50.202;10.948;2023-05-16T13:17:53;2.50;;;1.40;;
26540;SDS011;14206;50.202;10.948;2023-05-16T13:20:20;1.55;;;1.45;;
26540;SDS011;14206;50.202;10.948;2023-05-16T13:22:47;1.30;;;1.20;;
26540;SDS011;14206;50.202;10.948;2023-05-16T13:25:14;1.83;;;1.30;;
26540;SDS011;14206;50.202;10.948;2023-05-16T13:27:41;1.88;;;1.17;;
26540;SDS011;14206;50.202;10.948;2023-05-16T13:30:08;2.83;;;1.48;;
26540;SDS011;14206;50.202;10.948;2023-05-16T13:32:35;2.13;;;1.20;;
26540;SDS011;14206;50.202;10.948;2023-05-16T13:35:02;1.33;;;0.88;;
26540;SDS011;14206;50.202;10.948;2023-05-16T13:37:29;1.80;;;1.33;;
26540;SDS011;14206;50.202;10.948;2023-05-16T13:39:57;2.60;;;1.50;;
26540;SDS011;14206;50.202;10.948;2023-05-16T13:42:24;2.97;;;1.30;;
26540;SDS011;14206;50.202;10.948;2023-05-16T13:44:51;3.80;;;1.52;;
26540;SDS011;14206;50.202;10.948;2023-05-16T13:47:18;3.35;;;1.75;;
26540;SDS011;14206;50.202;10.948;2023-05-16T13:49:45;2.33;;;1.27;;
26540;SDS011;14206;50.202;10.948;2023-05-16T13:52:12;3.05;;;1.40;;
26540;SDS011;14206;50.202;10.948;2023-05-16T13:54:40;3.97;;;1.67;;
26540;SDS011;14206;50.202;10.948;2023-05-16T13:57:07;4.50;;;1.63;;
26540;SDS011;14206;50.202;10.948;2023-05-16T13:59:33;3.38;;;1.60;;
26540;SDS011;14206;50.202;10.948;2023-05-16T14:02:21;2.88;;;1.60;;
26540;SDS011;14206;50.202;10.948;2023-05-16T14:04:47;1.70;;;1.20;;
26540;SDS011;14206;50.202;10.948;2023-05-16T14:07:15;1.15;;;1.00;;
26540;SDS011;14206;50.202;10.948;2023-05-16T14:09:42;2.10;;;1.10;;
26540;SDS011;14206;50.202;10.948;2023-05-16T14:12:10;2.17;;;1.10;;
26540;SDS011;14206;50.202;10.948;2023-05-16T14:14:37;1.83;;;1.42;;
26540;SDS011;14206;50.202;10.948;2023-05-16T14:17:04;4.43;;;1.30;;
26540;SDS011;14206;50.202;10.948;2023-05-16T14:19:32;3.08;;;1.13;;
26540;SDS011;14206;50.202;10.948;2023-05-16T14:21:59;1.50;;;0.95;;
26540;SDS011;14206;50.202;10.948;2023-05-16T14:24:26;3.20;;;1.25;;
26540;SDS011;14206;50.202;10.948;2023-05-16T14:26:53;1.25;;;1.00;;
26540;SDS011;14206;50.202;10.948;2023-05-16T14:29:20;2.47;;;1.00;;
26540;SDS011;14206;50.202;10.948;2023-05-16T14:31:47;2.15;;;1.00;;
26540;SDS011;14206;50.202;10.948;2023-05-16T14:34:14;2.15;;;1.10;;
26540;SDS011;14206;50.202;10.948;2023-05-16T14:36:41;2.08;;;1.10;;
26540;SDS011;14206;50.202;10.948;2023-05-16T14:39:09;0.85;;;0.82;;
26540;SDS011;14206;50.202;10.948;2023-05-16T14:41:36;1.13;;;0.80;;
26540;SDS011;14206;50.202;10.948;2023-05-16T14:44:02;1.33;;;0.90;;
26540;SDS011;14206;50.202;10.948;2023-05-16T14:46:30;2.20;;;1.15;;
26540;SDS011;14206;50.202;10.948;2023-05-16T14:48:57;2.28;;;1.10;;
26540;SDS011;14206;50.202;10.948;2023-05-16T14:51:24;2.38;;;0.85;;
26540;SDS011;14206;50.202;10.948;2023-05-16T14:53:51;0.90;;;0.70;;
26540;SDS011;14206;50.202;10.948;2023-05-16T14:56:17;2.72;;;1.20;;
26540;SDS011;14206;50.202;10.948;2023-05-16T14:58:44;1.70;;;1.00;;
26540;SDS011;14206;50.202;10.948;2023-05-16T15:01:11;1.42;;;1.00;;
26540;SDS011;14206;50.202;10.948;2023-05-16T15:03:40;2.85;;;1.00;;
26540;SDS011;14206;50.202;10.948;2023-05-16T15:06:10;2.55;;;0.90;;
26540;SDS011;14206;50.202;10.948;2023-05-16T15:08:37;1.73;;;0.95;;